sensor_id;sensor_type;location;lat;lon;timestamp;P1;durP1;ratioP1;P2;durP2;ratioP2
1346;SDS011;667;48.796;9.480;2023-05-17T00:00:53;1.50;;;1.37;;
1346;SDS011;667;48.796;9.480;2023-05-17T00:03:19;3.17;;;2.20;;
1346;SDS011;667;48.796;9.480;2023-05-17T00:05:44;1.60;;;1.50;;
1346;SDS011;667;48.796;9.480;2023-05-17T00:08:10;1.90;;;1.50;;
1346;SDS011;667;48.796;9.480;2023-05-17T00:10:36;2.63;;;1.70;;
1346;SDS011;667;48.796;9.480;2023-05-17T00:13:02;2.90;;;1.40;;
1346;SDS011;667;48.796;9.480;2023-05-17T00:15:28;2.33;;;1.60;;
1346;SDS011;667;48.796;9.480;2023-05-17T00:17:53;6.80;;;1.80;;
1346;SDS011;667;48.796;9.480;2023-05-17T00:20:19;2.80;;;1.77;;
1346;SDS011;667;48.796;9.480;2023-05-17T00:22:45;1.90;;;1.60;;
1346;SDS011;667;48.796;9.480;2023-05-17T00:25:11;2.70;;;1.80;;
1346;SDS011;667;48.796;9.480;2023-05-17T00:27:36;2.77;;;1.60;;
1346;SDS011;667;48.796;9.480;2023-05-17T00:30:02;1.73;;;1.50;;
1346;SDS011;667;48.796;9.480;2023-05-17T00:32:28;2.85;;;1.60;;
1346;SDS011;667;48.796;9.480;2023-05-17T00:34:54;1.50;;;1.33;;
1346;SDS011;667;48.796;9.480;2023-05-17T00:37:20;2.47;;;1.27;;
1346;SDS011;667;48.796;9.480;2023-05-17T00:39:45;1.70;;;1.60;;
1346;SDS011;667;48.796;9.480;2023-05-17T00:42:11;3.27;;;1.80;;
1346;SDS011;667;48.796;9.480;2023-05-17T00:44:37;2.53;;;1.67;;
1346;SDS011;667;48.796;9.480;2023-05-17T00:47:02;2.00;;;1.70;;
1346;SDS011;667;48.796;9.480;2023-05-17T00:49:28;2.00;;;1.50;;
1346;SDS011;667;48.796;9.480;2023-05-17T00:51:54;3.57;;;1.57;;
1346;SDS011;667;48.796;9.480;2023-05-17T00:54:20;2.95;;;1.65;;
1346;SDS011;667;48.796;9.480;2023-05-17T00:56:47;1.90;;;1.52;;
1346;SDS011;667;48.796;9.480;2023-05-17T00:59:13;1.50;;;1.40;;
1346;SDS011;667;48.796;9.480;2023-05-17T01:01:42;3.00;;;1.52;;
1346;SDS011;667;48.796;9.480;2023-05-17T01:04:09;1.60;;;1.50;;
1346;SDS011;667;48.796;9.480;2023-05-17T01:06:35;3.33;;;1.80;;
1346;SDS011;667;48.796;9.480;2023-05-17T01:09:01;2.90;;;1.58;;
1346;SDS011;667;48.796;9.480;2023-05-17T01:11:31;7.00;;;1.95;;
1346;SDS011;667;48.796;9.480;2023-05-17T01:16:47;2.55;;;1.88;;
1346;SDS011;667;48.796;9.480;2023-05-17T01:20:00;2.10;;;1.50;;
1346;SDS011;667;48.796;9.480;2023-05-17T01:22:49;2.55;;;1.60;;
1346;SDS011;667;48.796;9.480;2023-05-17T01:28:09;3.72;;;1.80;;
1346;SDS011;667;48.796;9.480;2023-05-17T01:30:36;5.20;;;1.77;;
1346;SDS011;667;48.796;9.480;2023-05-17T01:33:02;2.17;;;1.80;;
1346;SDS011;667;48.796;9.480;2023-05-17T01:35:29;1.92;;;1.70;;
1346;SDS011;667;48.796;9.480;2023-05-17T01:37:55;2.50;;;1.67;;
1346;SDS011;667;48.796;9.480;2023-05-17T01:40:20;1.60;;;1.50;;
1346;SDS011;667;48.796;9.480;2023-05-17T01:42:50;2.70;;;1.50;;
1346;SDS011;667;48.796;9.480;2023-05-17T01:45:22;1.63;;;1.25;;
1346;SDS011;667;48.796;9.480;2023-05-17T01:47:59;3.58;;;1.70;;
1346;SDS011;667;48.796;9.480;2023-05-17T01:50:39;2.75;;;1.85;;
1346;SDS011;667;48.796;9.480;2023-05-17T01:53:08;2.10;;;1.60;;
1346;SDS011;667;48.796;9.480;2023-05-17T01:55:43;2.30;;;1.73;;
1346;SDS011;667;48.796;9.480;2023-05-17T01:58:14;3.63;;;1.90;;
1346;SDS011;667;48.796;9.480;2023-05-17T02:00:40;1.97;;;1.50;;
1346;SDS011;667;48.796;9.480;2023-05-17T02:03:27;3.53;;;1.75;;
1346;SDS011;667;48.796;9.480;2023-05-17T02:05:56;4.28;;;1.75;;
1346;SDS011;667;48.796;9.480;2023-05-17T02:08:21;2.40;;;1.70;;
1346;SDS011;667;48.796;9.480;2023-05-17T02:10:47;2.30;;;1.60;;
1346;SDS011;667;48.796;9.480;2023-05-17T02:13:12;2.00;;;1.77;;
1346;SDS011;667;48.796;9.480;2023-05-17T02:15:38;4.93;;;1.90;;
1346;SDS011;667;48.796;9.480;2023-05-17T02:18:04;2.17;;;1.73;;
1346;SDS011;667;48.796;9.480;2023-05-17T02:20:29;2.93;;;1.83;;
1346;SDS011;667;48.796;9.480;2023-05-17T02:22:55;2.60;;;1.63;;
1346;SDS011;667;48.796;9.480;2023-05-17T02:25:20;2.70;;;1.50;;
1346;SDS011;667;48.796;9.480;2023-05-17T02:27:46;2.23;;;1.63;;
1346;SDS011;667;48.796;9.480;2023-05-17T02:30:11;2.57;;;1.60;;
1346;SDS011;667;48.796;9.480;2023-05-17T02:32:38;2.65;;;1.88;;
1346;SDS011;667;48.796;9.480;2023-05-17T02:35:04;3.03;;;1.90;;
1346;SDS011;667;48.796;9.480;2023-05-17T02:37:30;3.23;;;1.90;;
1346;SDS011;667;48.796;9.480;2023-05-17T02:39:56;6.40;;;2.23;;
1346;SDS011;667;48.796;9.480;2023-05-17T02:42:21;3.10;;;1.40;;
1346;SDS011;667;48.796;9.480;2023-05-17T02:44:47;2.20;;;1.70;;
1346;SDS011;667;48.796;9.480;2023-05-17T02:47:16;2.58;;;1.60;;
1346;SDS011;667;48.796;9.480;2023-05-17T02:49:42;4.00;;;1.40;;
1346;SDS011;667;48.796;9.480;2023-05-17T02:52:08;2.60;;;1.63;;
1346;SDS011;667;48.796;9.480;2023-05-17T02:54:34;4.37;;;1.60;;
1346;SDS011;667;48.796;9.480;2023-05-17T02:56:59;4.30;;;1.73;;
1346;SDS011;667;48.796;9.480;2023-05-17T02:59:25;2.90;;;1.90;;
1346;SDS011;667;48.796;9.480;2023-05-17T03:01:50;1.90;;;1.80;;
1346;SDS011;667;48.796;9.480;2023-05-17T03:04:16;2.80;;;1.70;;
1346;SDS011;667;48.796;9.480;2023-05-17T03:06:44;1.60;;;1.40;;
1346;SDS011;667;48.796;9.480;2023-05-17T03:09:09;2.27;;;1.37;;
1346;SDS011;667;48.796;9.480;2023-05-17T03:11:35;2.40;;;1.70;;
1346;SDS011;667;48.796;9.480;2023-05-17T03:14:01;1.93;;;1.43;;
1346;SDS011;667;48.796;9.480;2023-05-17T03:16:26;4.60;;;1.43;;
1346;SDS011;667;48.796;9.480;2023-05-17T03:18:52;2.83;;;1.70;;
1346;SDS011;667;48.796;9.480;2023-05-17T03:21:17;1.97;;;1.40;;
1346;SDS011;667;48.796;9.480;2023-05-17T03:23:43;1.50;;;1.40;;
1346;SDS011;667;48.796;9.480;2023-05-17T03:26:08;1.87;;;1.67;;
1346;SDS011;667;48.796;9.480;2023-05-17T03:28:34;2.00;;;1.60;;
1346;SDS011;667;48.796;9.480;2023-05-17T03:30:59;2.60;;;1.70;;
1346;SDS011;667;48.796;9.480;2023-05-17T03:33:25;2.57;;;1.53;;
1346;SDS011;667;48.796;9.480;2023-05-17T03:35:51;9.07;;;3.20;;
1346;SDS011;667;48.796;9.480;2023-05-17T03:38:16;3.00;;;1.40;;
1346;SDS011;667;48.796;9.480;2023-05-17T03:40:42;2.60;;;1.53;;
1346;SDS011;667;48.796;9.480;2023-05-17T03:43:08;3.10;;;1.60;;
1346;SDS011;667;48.796;9.480;2023-05-17T03:45:33;4.57;;;1.60;;
1346;SDS011;667;48.796;9.480;2023-05-17T03:47:59;5.00;;;1.67;;
1346;SDS011;667;48.796;9.480;2023-05-17T03:50:24;2.80;;;1.50;;
1346;SDS011;667;48.796;9.480;2023-05-17T03:52:50;4.27;;;1.83;;
1346;SDS011;667;48.796;9.480;2023-05-17T03:55:15;2.30;;;1.70;;
1346;SDS011;667;48.796;9.480;2023-05-17T03:57:41;2.83;;;1.67;;
1346;SDS011;667;48.796;9.480;2023-05-17T04:00:07;2.17;;;1.57;;
1346;SDS011;667;48.796;9.480;2023-05-17T04:02:36;2.75;;;1.75;;
1346;SDS011;667;48.796;9.480;2023-05-17T04:05:02;2.75;;;1.30;;
1346;SDS011;667;48.796;9.480;2023-05-17T04:07:28;1.50;;;1.40;;
1346;SDS011;667;48.796;9.480;2023-05-17T04:09:54;2.70;;;1.60;;
1346;SDS011;667;48.796;9.480;2023-05-17T04:12:24;2.22;;;1.60;;
1346;SDS011;667;48.796;9.480;2023-05-17T04:14:49;3.13;;;1.83;;
1346;SDS011;667;48.796;9.480;2023-05-17T04:17:15;3.30;;;1.90;;
1346;SDS011;667;48.796;9.480;2023-05-17T04:19:40;3.40;;;2.00;;
1346;SDS011;667;48.796;9.480;2023-05-17T04:22:06;2.63;;;1.60;;
1346;SDS011;667;48.796;9.480;2023-05-17T04:24:32;2.03;;;1.80;;
1346;SDS011;667;48.796;9.480;2023-05-17T04:26:57;3.00;;;1.73;;
1346;SDS011;667;48.796;9.480;2023-05-17T04:29:23;1.80;;;1.60;;
1346;SDS011;667;48.796;9.480;2023-05-17T04:31:49;1.80;;;1.60;;
1346;SDS011;667;48.796;9.480;2023-05-17T04:34:15;1.33;;;1.23;;
1346;SDS011;667;48.796;9.480;2023-05-17T04:36:40;2.20;;;1.63;;
1346;SDS011;667;48.796;9.480;2023-05-17T04:39:06;2.20;;;1.53;;
1346;SDS011;667;48.796;9.480;2023-05-17T04:41:32;2.80;;;1.43;;
1346;SDS011;667;48.796;9.480;2023-05-17T04:43:57;3.60;;;1.87;;
1346;SDS011;667;48.796;9.480;2023-05-17T04:46:23;2.97;;;1.63;;
1346;SDS011;667;48.796;9.480;2023-05-17T04:48:48;2.90;;;2.70;;
1346;SDS011;667;48.796;9.480;2023-05-17T04:51:14;8.50;;;4.33;;
1346;SDS011;667;48.796;9.480;2023-05-17T04:53:39;5.93;;;3.10;;
1346;SDS011;667;48.796;9.480;2023-05-17T04:56:05;4.57;;;3.80;;
1346;SDS011;667;48.796;9.480;2023-05-17T04:58:31;3.13;;;2.83;;
1346;SDS011;667;48.796;9.480;2023-05-17T05:00:56;3.20;;;2.90;;
1346;SDS011;667;48.796;9.480;2023-05-17T05:03:22;3.10;;;2.50;;
1346;SDS011;667;48.796;9.480;2023-05-17T05:05:48;3.50;;;2.47;;
1346;SDS011;667;48.796;9.480;2023-05-17T05:08:13;5.70;;;2.67;;
1346;SDS011;667;48.796;9.480;2023-05-17T05:10:39;3.20;;;2.90;;
1346;SDS011;667;48.796;9.480;2023-05-17T05:13:04;5.77;;;3.40;;
1346;SDS011;667;48.796;9.480;2023-05-17T05:15:30;3.07;;;2.57;;
1346;SDS011;667;48.796;9.480;2023-05-17T05:17:56;2.67;;;2.47;;
1346;SDS011;667;48.796;9.480;2023-05-17T05:20:22;3.70;;;3.40;;
1346;SDS011;667;48.796;9.480;2023-05-17T05:22:47;3.40;;;3.10;;
1346;SDS011;667;48.796;9.480;2023-05-17T05:25:15;3.20;;;2.90;;
1346;SDS011;667;48.796;9.480;2023-05-17T05:27:48;6.72;;;3.33;;
1346;SDS011;667;48.796;9.480;2023-05-17T05:30:14;5.80;;;3.40;;
1346;SDS011;667;48.796;9.480;2023-05-17T05:32:46;4.47;;;3.60;;
1346;SDS011;667;48.796;9.480;2023-05-17T05:35:15;4.75;;;2.80;;
1346;SDS011;667;48.796;9.480;2023-05-17T05:37:42;3.70;;;3.17;;
1346;SDS011;667;48.796;9.480;2023-05-17T05:40:09;3.10;;;2.67;;
1346;SDS011;667;48.796;9.480;2023-05-17T05:42:35;4.05;;;2.67;;
1346;SDS011;667;48.796;9.480;2023-05-17T05:45:00;4.33;;;2.70;;
1346;SDS011;667;48.796;9.480;2023-05-17T05:47:26;4.33;;;3.33;;
1346;SDS011;667;48.796;9.480;2023-05-17T05:49:52;3.73;;;3.43;;
1346;SDS011;667;48.796;9.480;2023-05-17T05:52:17;4.57;;;3.30;;
1346;SDS011;667;48.796;9.480;2023-05-17T05:54:43;3.83;;;3.50;;
1346;SDS011;667;48.796;9.480;2023-05-17T05:57:09;8.45;;;3.50;;
1346;SDS011;667;48.796;9.480;2023-05-17T05:59:35;6.17;;;3.37;;
1346;SDS011;667;48.796;9.480;2023-05-17T06:02:00;6.23;;;3.73;;
1346;SDS011;667;48.796;9.480;2023-05-17T06:04:26;3.10;;;2.87;;
1346;SDS011;667;48.796;9.480;2023-05-17T06:06:53;4.20;;;3.78;;
1346;SDS011;667;48.796;9.480;2023-05-17T06:09:18;7.95;;;3.60;;
1346;SDS011;667;48.796;9.480;2023-05-17T06:11:44;5.10;;;3.40;;
1346;SDS011;667;48.796;9.480;2023-05-17T06:14:09;6.97;;;2.90;;
1346;SDS011;667;48.796;9.480;2023-05-17T06:16:35;5.10;;;2.70;;
1346;SDS011;667;48.796;9.480;2023-05-17T06:19:01;6.30;;;3.50;;
1346;SDS011;667;48.796;9.480;2023-05-17T06:21:27;4.07;;;2.67;;
1346;SDS011;667;48.796;9.480;2023-05-17T06:23:53;3.90;;;2.40;;
1346;SDS011;667;48.796;9.480;2023-05-17T06:26:18;5.63;;;3.00;;
1346;SDS011;667;48.796;9.480;2023-05-17T06:28:44;2.83;;;2.37;;
1346;SDS011;667;48.796;9.480;2023-05-17T06:31:10;6.03;;;2.63;;
1346;SDS011;667;48.796;9.480;2023-05-17T06:33:35;5.60;;;3.00;;
1346;SDS011;667;48.796;9.480;2023-05-17T06:36:01;6.27;;;3.50;;
1346;SDS011;667;48.796;9.480;2023-05-17T06:38:26;3.40;;;2.70;;
1346;SDS011;667;48.796;9.480;2023-05-17T06:40:52;5.10;;;2.70;;
1346;SDS011;667;48.796;9.480;2023-05-17T06:43:19;3.85;;;2.90;;
1346;SDS011;667;48.796;9.480;2023-05-17T06:45:45;7.53;;;3.47;;
1346;SDS011;667;48.796;9.480;2023-05-17T06:48:10;4.97;;;3.50;;
1346;SDS011;667;48.796;9.480;2023-05-17T06:50:36;4.30;;;3.00;;
1346;SDS011;667;48.796;9.480;2023-05-17T06:53:02;6.57;;;3.13;;
1346;SDS011;667;48.796;9.480;2023-05-17T06:55:28;5.35;;;3.20;;
1346;SDS011;667;48.796;9.480;2023-05-17T06:57:54;7.00;;;3.87;;
1346;SDS011;667;48.796;9.480;2023-05-17T07:00:19;5.10;;;3.60;;
1346;SDS011;667;48.796;9.480;2023-05-17T07:02:45;4.10;;;3.00;;
1346;SDS011;667;48.796;9.480;2023-05-17T07:05:11;7.83;;;3.13;;
1346;SDS011;667;48.796;9.480;2023-05-17T07:07:37;5.43;;;2.80;;
1346;SDS011;667;48.796;9.480;2023-05-17T07:10:05;3.57;;;3.27;;
1346;SDS011;667;48.796;9.480;2023-05-17T07:12:31;5.60;;;2.90;;
1346;SDS011;667;48.796;9.480;2023-05-17T07:14:58;7.40;;;3.53;;
1346;SDS011;667;48.796;9.480;2023-05-17T07:17:23;6.17;;;3.00;;
1346;SDS011;667;48.796;9.480;2023-05-17T07:19:49;4.70;;;3.47;;
1346;SDS011;667;48.796;9.480;2023-05-17T07:22:17;4.57;;;2.83;;
1346;SDS011;667;48.796;9.480;2023-05-17T07:24:44;3.67;;;2.35;;
1346;SDS011;667;48.796;9.480;2023-05-17T07:27:10;5.15;;;3.35;;
1346;SDS011;667;48.796;9.480;2023-05-17T07:29:36;5.50;;;3.85;;
1346;SDS011;667;48.796;9.480;2023-05-17T07:32:01;7.30;;;4.20;;
1346;SDS011;667;48.796;9.480;2023-05-17T07:34:28;4.00;;;2.87;;
1346;SDS011;667;48.796;9.480;2023-05-17T07:36:54;4.78;;;2.92;;
1346;SDS011;667;48.796;9.480;2023-05-17T07:39:20;3.10;;;2.47;;
1346;SDS011;667;48.796;9.480;2023-05-17T07:41:45;5.63;;;3.43;;
1346;SDS011;667;48.796;9.480;2023-05-17T07:44:11;5.10;;;3.50;;
1346;SDS011;667;48.796;9.480;2023-05-17T07:46:37;7.13;;;2.90;;
1346;SDS011;667;48.796;9.480;2023-05-17T07:49:02;7.73;;;3.63;;
1346;SDS011;667;48.796;9.480;2023-05-17T07:51:28;6.00;;;3.40;;
1346;SDS011;667;48.796;9.480;2023-05-17T07:53:53;3.70;;;3.20;;
1346;SDS011;667;48.796;9.480;2023-05-17T07:56:19;6.70;;;3.13;;
1346;SDS011;667;48.796;9.480;2023-05-17T07:58:45;6.20;;;3.33;;
1346;SDS011;667;48.796;9.480;2023-05-17T08:01:10;5.17;;;3.80;;
1346;SDS011;667;48.796;9.480;2023-05-17T08:03:36;8.30;;;3.83;;
1346;SDS011;667;48.796;9.480;2023-05-17T08:06:01;27.23;;;6.80;;
1346;SDS011;667;48.796;9.480;2023-05-17T08:08:27;8.30;;;3.60;;
1346;SDS011;667;48.796;9.480;2023-05-17T08:10:52;5.20;;;4.00;;
1346;SDS011;667;48.796;9.480;2023-05-17T08:13:18;7.37;;;3.77;;
1346;SDS011;667;48.796;9.480;2023-05-17T08:15:44;5.13;;;2.80;;
1346;SDS011;667;48.796;9.480;2023-05-17T08:18:09;6.47;;;3.80;;
1346;SDS011;667;48.796;9.480;2023-05-17T08:20:35;6.13;;;3.37;;
1346;SDS011;667;48.796;9.480;2023-05-17T08:23:01;6.00;;;3.90;;
1346;SDS011;667;48.796;9.480;2023-05-17T08:25:27;6.57;;;3.60;;
1346;SDS011;667;48.796;9.480;2023-05-17T08:27:52;7.03;;;3.40;;
1346;SDS011;667;48.796;9.480;2023-05-17T08:30:18;4.63;;;3.50;;
1346;SDS011;667;48.796;9.480;2023-05-17T08:32:44;5.37;;;3.33;;
1346;SDS011;667;48.796;9.480;2023-05-17T08:35:10;7.23;;;3.40;;
1346;SDS011;667;48.796;9.480;2023-05-17T08:37:36;6.20;;;3.50;;
1346;SDS011;667;48.796;9.480;2023-05-17T08:40:02;4.47;;;3.20;;
1346;SDS011;667;48.796;9.480;2023-05-17T08:42:28;4.40;;;3.47;;
1346;SDS011;667;48.796;9.480;2023-05-17T08:44:54;4.00;;;3.00;;
1346;SDS011;667;48.796;9.480;2023-05-17T08:47:20;5.30;;;3.00;;
1346;SDS011;667;48.796;9.480;2023-05-17T08:49:56;6.40;;;2.95;;
1346;SDS011;667;48.796;9.480;2023-05-17T08:52:24;5.33;;;3.93;;
1346;SDS011;667;48.796;9.480;2023-05-17T08:54:55;6.10;;;3.75;;
1346;SDS011;667;48.796;9.480;2023-05-17T08:57:21;7.17;;;3.50;;
1346;SDS011;667;48.796;9.480;2023-05-17T08:59:48;4.37;;;3.30;;
1346;SDS011;667;48.796;9.480;2023-05-17T09:02:16;3.43;;;3.13;;
1346;SDS011;667;48.796;9.480;2023-05-17T09:04:41;5.20;;;3.30;;
1346;SDS011;667;48.796;9.480;2023-05-17T09:07:07;4.43;;;3.00;;
1346;SDS011;667;48.796;9.480;2023-05-17T09:09:33;5.43;;;3.70;;
1346;SDS011;667;48.796;9.480;2023-05-17T09:11:59;4.73;;;3.23;;
1346;SDS011;667;48.796;9.480;2023-05-17T09:14:31;6.23;;;3.57;;
1346;SDS011;667;48.796;9.480;2023-05-17T09:16:59;3.88;;;2.88;;
1346;SDS011;667;48.796;9.480;2023-05-17T09:19:25;4.50;;;2.80;;
1346;SDS011;667;48.796;9.480;2023-05-17T09:21:52;7.83;;;2.90;;
1346;SDS011;667;48.796;9.480;2023-05-17T09:24:26;4.70;;;3.10;;
1346;SDS011;667;48.796;9.480;2023-05-17T09:26:53;7.40;;;3.90;;
1346;SDS011;667;48.796;9.480;2023-05-17T09:29:25;3.13;;;2.83;;
1346;SDS011;667;48.796;9.480;2023-05-17T09:31:54;4.03;;;2.73;;
1346;SDS011;667;48.796;9.480;2023-05-17T09:34:19;6.13;;;3.23;;
1346;SDS011;667;48.796;9.480;2023-05-17T09:36:47;4.43;;;3.27;;
1346;SDS011;667;48.796;9.480;2023-05-17T09:39:13;3.30;;;3.00;;
1346;SDS011;667;48.796;9.480;2023-05-17T09:41:43;4.00;;;2.93;;
1346;SDS011;667;48.796;9.480;2023-05-17T09:44:10;4.17;;;3.17;;
1346;SDS011;667;48.796;9.480;2023-05-17T09:46:38;6.93;;;3.30;;
1346;SDS011;667;48.796;9.480;2023-05-17T09:49:06;5.43;;;3.23;;
1346;SDS011;667;48.796;9.480;2023-05-17T09:51:33;4.50;;;2.70;;
1346;SDS011;667;48.796;9.480;2023-05-17T09:53:59;5.40;;;3.17;;
1346;SDS011;667;48.796;9.480;2023-05-17T09:56:28;2.70;;;2.50;;
1346;SDS011;667;48.796;9.480;2023-05-17T09:58:54;5.27;;;3.27;;
1346;SDS011;667;48.796;9.480;2023-05-17T10:01:21;3.80;;;3.20;;
1346;SDS011;667;48.796;9.480;2023-05-17T10:03:51;5.50;;;2.90;;
1346;SDS011;667;48.796;9.480;2023-05-17T10:06:18;5.80;;;3.77;;
1346;SDS011;667;48.796;9.480;2023-05-17T10:08:51;4.23;;;3.40;;
1346;SDS011;667;48.796;9.480;2023-05-17T10:11:26;4.80;;;2.63;;
1346;SDS011;667;48.796;9.480;2023-05-17T10:14:08;6.27;;;3.60;;
1346;SDS011;667;48.796;9.480;2023-05-17T10:16:40;2.93;;;2.40;;
1346;SDS011;667;48.796;9.480;2023-05-17T10:19:06;5.13;;;3.23;;
1346;SDS011;667;48.796;9.480;2023-05-17T10:21:34;6.10;;;2.87;;
1346;SDS011;667;48.796;9.480;2023-05-17T10:24:00;5.00;;;3.23;;
1346;SDS011;667;48.796;9.480;2023-05-17T10:26:27;4.33;;;3.03;;
1346;SDS011;667;48.796;9.480;2023-05-17T10:28:58;2.97;;;2.67;;
1346;SDS011;667;48.796;9.480;2023-05-17T10:31:26;4.03;;;3.03;;
1346;SDS011;667;48.796;9.480;2023-05-17T10:33:53;3.50;;;2.97;;
1346;SDS011;667;48.796;9.480;2023-05-17T10:36:19;4.03;;;3.00;;
1346;SDS011;667;48.796;9.480;2023-05-17T10:38:47;6.57;;;3.23;;
1346;SDS011;667;48.796;9.480;2023-05-17T10:41:13;6.63;;;2.77;;
1346;SDS011;667;48.796;9.480;2023-05-17T10:43:40;5.60;;;4.07;;
1346;SDS011;667;48.796;9.480;2023-05-17T10:46:11;5.50;;;3.50;;
1346;SDS011;667;48.796;9.480;2023-05-17T10:48:40;6.53;;;3.30;;
1346;SDS011;667;48.796;9.480;2023-05-17T10:51:06;4.87;;;3.60;;
1346;SDS011;667;48.796;9.480;2023-05-17T10:53:33;7.60;;;3.97;;
1346;SDS011;667;48.796;9.480;2023-05-17T10:56:38;4.10;;;3.23;;
1346;SDS011;667;48.796;9.480;2023-05-17T10:59:21;6.27;;;4.10;;
1346;SDS011;667;48.796;9.480;2023-05-17T11:04:25;3.73;;;2.93;;
1346;SDS011;667;48.796;9.480;2023-05-17T11:07:18;3.83;;;3.10;;
1346;SDS011;667;48.796;9.480;2023-05-17T11:09:43;4.40;;;3.50;;
1346;SDS011;667;48.796;9.480;2023-05-17T11:12:11;5.37;;;4.30;;
1346;SDS011;667;48.796;9.480;2023-05-17T11:17:13;7.53;;;3.80;;
1346;SDS011;667;48.796;9.480;2023-05-17T11:22:34;4.67;;;3.03;;
1346;SDS011;667;48.796;9.480;2023-05-17T11:25:01;9.53;;;4.37;;
1346;SDS011;667;48.796;9.480;2023-05-17T11:27:35;6.67;;;4.10;;
1346;SDS011;667;48.796;9.480;2023-05-17T11:30:09;5.10;;;3.67;;
1346;SDS011;667;48.796;9.480;2023-05-17T11:32:51;6.50;;;3.50;;
1346;SDS011;667;48.796;9.480;2023-05-17T11:35:18;5.17;;;3.27;;
1346;SDS011;667;48.796;9.480;2023-05-17T11:37:50;3.73;;;3.30;;
1346;SDS011;667;48.796;9.480;2023-05-17T11:40:35;8.20;;;3.37;;
1346;SDS011;667;48.796;9.480;2023-05-17T11:43:08;4.00;;;3.60;;
1346;SDS011;667;48.796;9.480;2023-05-17T11:48:18;4.33;;;2.93;;
1346;SDS011;667;48.796;9.480;2023-05-17T11:50:46;4.27;;;3.50;;
1346;SDS011;667;48.796;9.480;2023-05-17T11:53:13;4.10;;;3.50;;
1346;SDS011;667;48.796;9.480;2023-05-17T11:55:43;4.80;;;3.10;;
1346;SDS011;667;48.796;9.480;2023-05-17T11:58:13;3.87;;;3.47;;
1346;SDS011;667;48.796;9.480;2023-05-17T12:00:41;6.07;;;3.27;;
1346;SDS011;667;48.796;9.480;2023-05-17T12:03:14;4.20;;;3.27;;
1346;SDS011;667;48.796;9.480;2023-05-17T12:05:45;5.13;;;3.30;;
1346;SDS011;667;48.796;9.480;2023-05-17T12:08:13;5.10;;;3.27;;
1346;SDS011;667;48.796;9.480;2023-05-17T12:10:44;3.07;;;2.70;;
1346;SDS011;667;48.796;9.480;2023-05-17T12:13:13;5.93;;;3.40;;
1346;SDS011;667;48.796;9.480;2023-05-17T12:15:40;14.33;;;3.90;;
1346;SDS011;667;48.796;9.480;2023-05-17T12:18:09;4.57;;;3.33;;
1346;SDS011;667;48.796;9.480;2023-05-17T12:20:35;7.07;;;3.83;;
1346;SDS011;667;48.796;9.480;2023-05-17T12:23:02;6.40;;;3.40;;
1346;SDS011;667;48.796;9.480;2023-05-17T12:25:28;3.40;;;3.00;;
1346;SDS011;667;48.796;9.480;2023-05-17T12:28:14;8.70;;;3.73;;
1346;SDS011;667;48.796;9.480;2023-05-17T12:30:50;4.73;;;2.73;;
1346;SDS011;667;48.796;9.480;2023-05-17T12:33:21;2.90;;;2.60;;
1346;SDS011;667;48.796;9.480;2023-05-17T12:35:47;3.90;;;3.10;;
1346;SDS011;667;48.796;9.480;2023-05-17T12:38:13;5.27;;;3.40;;
1346;SDS011;667;48.796;9.480;2023-05-17T12:40:39;3.47;;;2.73;;
1346;SDS011;667;48.796;9.480;2023-05-17T12:43:05;4.70;;;3.50;;
1346;SDS011;667;48.796;9.480;2023-05-17T12:45:30;3.73;;;3.30;;
1346;SDS011;667;48.796;9.480;2023-05-17T12:47:58;4.60;;;3.00;;
1346;SDS011;667;48.796;9.480;2023-05-17T12:50:25;5.70;;;3.00;;
1346;SDS011;667;48.796;9.480;2023-05-17T12:52:54;5.50;;;3.03;;
1346;SDS011;667;48.796;9.480;2023-05-17T12:55:20;6.27;;;3.30;;
1346;SDS011;667;48.796;9.480;2023-05-17T12:57:52;6.90;;;3.30;;
1346;SDS011;667;48.796;9.480;2023-05-17T13:00:18;4.70;;;3.23;;
1346;SDS011;667;48.796;9.480;2023-05-17T13:02:45;7.90;;;2.73;;
1346;SDS011;667;48.796;9.480;2023-05-17T13:07:39;5.63;;;3.50;;
1346;SDS011;667;48.796;9.480;2023-05-17T13:10:05;3.97;;;3.53;;
1346;SDS011;667;48.796;9.480;2023-05-17T13:12:52;4.20;;;3.80;;
1346;SDS011;667;48.796;9.480;2023-05-17T13:15:18;5.10;;;3.60;;
1346;SDS011;667;48.796;9.480;2023-05-17T13:17:46;6.13;;;3.50;;
1346;SDS011;667;48.796;9.480;2023-05-17T13:20:13;4.30;;;3.13;;
1346;SDS011;667;48.796;9.480;2023-05-17T13:22:44;5.10;;;3.60;;
1346;SDS011;667;48.796;9.480;2023-05-17T13:25:10;3.73;;;3.30;;
1346;SDS011;667;48.796;9.480;2023-05-17T13:27:36;5.70;;;3.20;;
1346;SDS011;667;48.796;9.480;2023-05-17T13:30:01;7.37;;;4.30;;
1346;SDS011;667;48.796;9.480;2023-05-17T13:32:28;4.67;;;3.43;;
1346;SDS011;667;48.796;9.480;2023-05-17T13:34:53;5.03;;;3.93;;
1346;SDS011;667;48.796;9.480;2023-05-17T13:37:19;5.10;;;3.67;;
1346;SDS011;667;48.796;9.480;2023-05-17T13:39:45;5.87;;;3.10;;
1346;SDS011;667;48.796;9.480;2023-05-17T13:42:11;6.40;;;3.40;;
1346;SDS011;667;48.796;9.480;2023-05-17T13:44:37;5.87;;;4.10;;
1346;SDS011;667;48.796;9.480;2023-05-17T13:47:03;7.13;;;3.40;;
1346;SDS011;667;48.796;9.480;2023-05-17T13:49:29;5.00;;;3.30;;
1346;SDS011;667;48.796;9.480;2023-05-17T13:51:54;4.87;;;3.50;;
1346;SDS011;667;48.796;9.480;2023-05-17T13:54:20;4.87;;;3.37;;
1346;SDS011;667;48.796;9.480;2023-05-17T13:56:46;7.60;;;4.10;;
1346;SDS011;667;48.796;9.480;2023-05-17T13:59:12;6.97;;;4.37;;
1346;SDS011;667;48.796;9.480;2023-05-17T14:01:39;5.57;;;4.30;;
1346;SDS011;667;48.796;9.480;2023-05-17T14:04:04;7.00;;;4.47;;
1346;SDS011;667;48.796;9.480;2023-05-17T14:06:30;4.67;;;3.90;;
1346;SDS011;667;48.796;9.480;2023-05-17T14:08:56;4.77;;;3.30;;
1346;SDS011;667;48.796;9.480;2023-05-17T14:11:23;5.93;;;3.30;;
1346;SDS011;667;48.796;9.480;2023-05-17T14:13:48;6.27;;;4.10;;
1346;SDS011;667;48.796;9.480;2023-05-17T14:16:14;6.20;;;3.40;;
1346;SDS011;667;48.796;9.480;2023-05-17T14:18:40;6.40;;;3.37;;
1346;SDS011;667;48.796;9.480;2023-05-17T14:21:05;7.20;;;4.17;;
1346;SDS011;667;48.796;9.480;2023-05-17T14:23:32;7.00;;;4.03;;
1346;SDS011;667;48.796;9.480;2023-05-17T14:25:58;6.33;;;3.67;;
1346;SDS011;667;48.796;9.480;2023-05-17T14:28:26;4.73;;;3.70;;
1346;SDS011;667;48.796;9.480;2023-05-17T14:30:52;4.80;;;3.83;;
1346;SDS011;667;48.796;9.480;2023-05-17T14:33:17;6.50;;;3.70;;
1346;SDS011;667;48.796;9.480;2023-05-17T14:35:43;5.97;;;3.80;;
1346;SDS011;667;48.796;9.480;2023-05-17T14:38:09;4.03;;;3.40;;
1346;SDS011;667;48.796;9.480;2023-05-17T14:40:35;4.20;;;3.73;;
1346;SDS011;667;48.796;9.480;2023-05-17T14:43:00;4.20;;;3.80;;
1346;SDS011;667;48.796;9.480;2023-05-17T14:45:26;8.40;;;3.60;;
1346;SDS011;667;48.796;9.480;2023-05-17T14:47:51;4.33;;;3.60;;
1346;SDS011;667;48.796;9.480;2023-05-17T14:50:17;4.10;;;3.30;;
1346;SDS011;667;48.796;9.480;2023-05-17T14:52:42;4.23;;;3.20;;
1346;SDS011;667;48.796;9.480;2023-05-17T14:55:08;5.43;;;3.73;;
1346;SDS011;667;48.796;9.480;2023-05-17T14:57:34;4.60;;;3.60;;
1346;SDS011;667;48.796;9.480;2023-05-17T15:00:00;4.93;;;2.90;;
1346;SDS011;667;48.796;9.480;2023-05-17T15:02:26;4.13;;;3.30;;
1346;SDS011;667;48.796;9.480;2023-05-17T15:04:53;4.40;;;3.67;;
1346;SDS011;667;48.796;9.480;2023-05-17T15:07:18;7.30;;;5.10;;
1346;SDS011;667;48.796;9.480;2023-05-17T15:09:44;4.97;;;3.90;;
1346;SDS011;667;48.796;9.480;2023-05-17T15:12:10;4.47;;;3.63;;
1346;SDS011;667;48.796;9.480;2023-05-17T15:14:36;6.30;;;4.00;;
1346;SDS011;667;48.796;9.480;2023-05-17T15:17:02;6.50;;;4.17;;
1346;SDS011;667;48.796;9.480;2023-05-17T15:19:28;3.23;;;2.90;;
1346;SDS011;667;48.796;9.480;2023-05-17T15:21:54;7.77;;;4.10;;
1346;SDS011;667;48.796;9.480;2023-05-17T15:24:20;4.10;;;3.70;;
1346;SDS011;667;48.796;9.480;2023-05-17T15:26:45;4.60;;;3.57;;
1346;SDS011;667;48.796;9.480;2023-05-17T15:29:11;6.27;;;3.27;;
1346;SDS011;667;48.796;9.480;2023-05-17T15:31:36;3.50;;;3.20;;
1346;SDS011;667;48.796;9.480;2023-05-17T15:34:02;6.00;;;4.17;;
1346;SDS011;667;48.796;9.480;2023-05-17T15:38:56;6.47;;;3.77;;
1346;SDS011;667;48.796;9.480;2023-05-17T15:41:22;5.63;;;4.40;;
1346;SDS011;667;48.796;9.480;2023-05-17T15:43:51;7.13;;;3.30;;
1346;SDS011;667;48.796;9.480;2023-05-17T15:46:17;4.97;;;3.63;;
1346;SDS011;667;48.796;9.480;2023-05-17T15:48:43;4.57;;;3.50;;
1346;SDS011;667;48.796;9.480;2023-05-17T15:51:09;5.07;;;3.80;;